createdAt,value
2022-10-14T00:01:15.937Z,12.60
2022-10-14T00:03:44.338Z,12.70
2022-10-14T00:06:14.148Z,12.70
2022-10-14T00:08:42.990Z,12.80
2022-10-14T00:11:14.042Z,12.70
2022-10-14T00:13:43.659Z,12.80
2022-10-14T00:16:18.478Z,12.70
2022-10-14T00:18:46.663Z,12.80
2022-10-14T00:21:15.137Z,12.80
2022-10-14T00:23:43.506Z,12.90
2022-10-14T00:26:17.736Z,12.90
2022-10-14T00:28:47.787Z,12.90
2022-10-14T00:31:16.609Z,13.00
2022-10-14T00:33:45.028Z,13.00
2022-10-14T00:36:16.277Z,13.00
2022-10-14T00:38:45.439Z,13.00
2022-10-14T00:41:14.892Z,13.10
2022-10-14T00:43:58.458Z,13.10
2022-10-14T00:46:28.057Z,13.20
2022-10-14T00:48:57.617Z,13.20
2022-10-14T00:51:25.971Z,13.30
2022-10-14T00:53:54.016Z,13.40
2022-10-14T00:56:26.521Z,13.50
2022-10-14T00:58:56.919Z,13.40
2022-10-14T01:01:25.585Z,13.40
2022-10-14T01:03:53.763Z,13.40
2022-10-14T01:06:32.394Z,13.50
2022-10-14T01:09:05.780Z,13.50
2022-10-14T01:11:41.855Z,13.50
2022-10-14T01:14:22.644Z,13.60
2022-10-14T01:16:58.520Z,13.60
2022-10-14T01:20:00.802Z,13.80
2022-10-14T01:22:32.958Z,13.70
2022-10-14T01:25:15.478Z,13.80
2022-10-14T01:27:58.972Z,13.70
2022-10-14T01:30:31.638Z,13.80
2022-10-14T01:33:07.984Z,13.80
2022-10-14T01:35:51.418Z,13.80
2022-10-14T01:38:25.246Z,13.80
2022-10-14T01:40:57.497Z,13.90
2022-10-14T01:43:28.842Z,13.90
2022-10-14T01:46:00.957Z,13.90
2022-10-14T01:48:33.447Z,13.90
2022-10-14T01:51:04.224Z,14.10
2022-10-14T01:53:37.492Z,14.00
2022-10-14T01:56:06.929Z,14.00
2022-10-14T01:58:37.546Z,14.00
2022-10-14T02:01:09.737Z,14.00
2022-10-14T02:03:42.803Z,14.00
2022-10-14T02:06:15.259Z,14.10
2022-10-14T02:08:58.845Z,14.10
2022-10-14T02:11:27.313Z,14.10
2022-10-14T02:14:12.943Z,14.10
2022-10-14T02:16:49.656Z,14.20
2022-10-14T02:19:27.167Z,14.20
2022-10-14T02:22:00.980Z,14.20
2022-10-14T02:24:32.497Z,14.20
2022-10-14T02:27:04.366Z,14.20
2022-10-14T02:29:33.653Z,14.30
2022-10-14T02:32:03.929Z,14.30
2022-10-14T02:34:33.572Z,14.30
2022-10-14T02:37:02.765Z,14.30
2022-10-14T02:39:33.770Z,14.30
2022-10-14T02:42:01.729Z,14.30
2022-10-14T02:44:29.619Z,14.30
2022-10-14T02:46:57.820Z,14.30
2022-10-14T02:49:27.150Z,14.50
2022-10-14T02:51:55.020Z,14.50
2022-10-14T02:54:22.981Z,14.40
2022-10-14T02:56:50.953Z,14.40
2022-10-14T02:59:18.925Z,14.40
2022-10-14T03:01:47.098Z,14.40
2022-10-14T03:04:15.051Z,14.40
2022-10-14T03:06:44.442Z,14.40
2022-10-14T03:09:12.352Z,14.50
2022-10-14T03:11:40.386Z,14.50
2022-10-14T03:14:08.376Z,14.60
2022-10-14T03:16:36.358Z,14.50
2022-10-14T03:19:04.836Z,14.50
2022-10-14T03:21:32.728Z,14.50
2022-10-14T03:24:02.427Z,14.50
2022-10-14T03:26:30.613Z,14.50
2022-10-14T03:28:58.799Z,14.50
2022-10-14T03:31:26.728Z,14.50
2022-10-14T03:33:54.605Z,14.50
2022-10-14T03:36:22.561Z,14.50
2022-10-14T03:38:50.736Z,14.60
2022-10-14T03:41:20.193Z,14.50
2022-10-14T03:43:48.810Z,14.60
2022-10-14T03:46:16.821Z,14.60
2022-10-14T03:48:44.966Z,14.60
2022-10-14T03:51:12.969Z,14.60
2022-10-14T03:53:40.990Z,14.60
2022-10-14T03:56:09.406Z,14.60
2022-10-14T03:58:39.166Z,14.70
2022-10-14T04:01:07.220Z,14.70
2022-10-14T04:03:35.386Z,14.70
2022-10-14T04:06:03.430Z,14.70
2022-10-14T04:08:31.550Z,14.70
2022-10-14T04:10:59.795Z,14.70
2022-10-14T04:13:27.737Z,14.70
2022-10-14T04:15:57.362Z,14.70
2022-10-14T04:18:25.272Z,14.70
2022-10-14T04:20:53.753Z,14.60
2022-10-14T04:23:21.741Z,14.80
2022-10-14T04:25:49.840Z,14.80
2022-10-14T04:28:18.038Z,14.80
2022-10-14T04:30:46.087Z,14.80
2022-10-14T04:33:15.615Z,14.80
2022-10-14T04:35:43.872Z,14.80
2022-10-14T04:38:12.119Z,14.80
2022-10-14T04:40:40.816Z,14.90
2022-10-14T04:43:08.741Z,14.80
2022-10-14T04:45:36.704Z,14.80
2022-10-14T04:48:04.864Z,14.80
2022-10-14T04:50:34.305Z,14.80
2022-10-14T04:53:02.315Z,14.80
2022-10-14T04:55:30.276Z,14.90
2022-10-14T04:57:58.499Z,14.90
2022-10-14T05:00:26.486Z,14.90
2022-10-14T05:02:54.482Z,14.90
2022-10-14T05:05:22.458Z,14.90
2022-10-14T05:07:51.938Z,14.90
2022-10-14T05:10:19.981Z,15.10
2022-10-14T05:12:48.057Z,15.00
2022-10-14T05:15:16.385Z,15.00
2022-10-14T05:17:44.808Z,15.00
2022-10-14T05:20:13.489Z,14.90
2022-10-14T05:22:44.009Z,15.00
2022-10-14T05:25:13.624Z,14.90
2022-10-14T05:27:41.681Z,15.00
2022-10-14T05:30:11.114Z,15.10
2022-10-14T05:32:40.164Z,15.00
2022-10-14T05:35:08.698Z,14.90
2022-10-14T05:37:36.668Z,15.00
2022-10-14T05:40:05.203Z,15.00
2022-10-14T05:42:34.597Z,15.00
2022-10-14T05:45:02.488Z,15.00
2022-10-14T05:47:30.485Z,15.00
2022-10-14T05:49:58.701Z,15.00
2022-10-14T05:52:26.708Z,15.00
2022-10-14T05:54:54.787Z,15.00
2022-10-14T05:57:22.704Z,15.00
2022-10-14T05:59:52.206Z,15.00
2022-10-14T06:02:20.703Z,15.00
2022-10-14T06:04:48.972Z,15.00
2022-10-14T06:07:16.961Z,15.10
2022-10-14T06:09:45.198Z,15.10
2022-10-14T06:12:13.143Z,15.10
2022-10-14T06:14:41.384Z,15.10
2022-10-14T06:17:10.647Z,15.10
2022-10-14T06:19:38.621Z,15.00
2022-10-14T06:22:06.521Z,15.10
2022-10-14T06:24:34.565Z,15.10
2022-10-14T06:27:02.521Z,15.10
2022-10-14T06:29:37.659Z,15.20
2022-10-14T06:32:06.070Z,15.20
2022-10-14T06:34:35.867Z,15.20
2022-10-14T06:37:03.858Z,15.40
2022-10-14T06:39:31.841Z,15.30
2022-10-14T06:42:00.272Z,15.30
2022-10-14T06:44:28.292Z,15.30
2022-10-14T06:46:56.355Z,15.40
2022-10-14T06:49:24.338Z,15.40
2022-10-14T06:51:53.590Z,15.30
2022-10-14T06:54:23.915Z,15.40
2022-10-14T06:56:51.846Z,15.40
2022-10-14T06:59:19.764Z,15.40
2022-10-14T07:01:47.835Z,15.50
2022-10-14T07:04:15.741Z,15.40
2022-10-14T07:06:43.593Z,15.40
2022-10-14T07:09:13.078Z,15.40
2022-10-14T07:11:42.744Z,15.50
2022-10-14T07:14:11.213Z,15.50
2022-10-14T07:16:39.136Z,15.50
2022-10-14T07:19:07.098Z,15.50
2022-10-14T07:21:35.043Z,15.50
2022-10-14T07:24:03.114Z,15.50
2022-10-14T07:26:33.004Z,15.50
2022-10-14T07:29:01.028Z,15.50
2022-10-14T07:31:29.975Z,15.50
2022-10-14T07:33:57.869Z,15.50
2022-10-14T07:36:25.841Z,15.50
2022-10-14T07:38:53.933Z,15.60
2022-10-14T07:41:24.152Z,15.70
2022-10-14T07:43:55.353Z,15.60
2022-10-14T07:46:32.000Z,15.60
2022-10-14T07:49:02.177Z,15.60
2022-10-14T07:51:30.756Z,15.70
2022-10-14T07:54:01.084Z,15.70
2022-10-14T07:56:29.389Z,15.70
2022-10-14T07:59:00.286Z,15.70
2022-10-14T08:01:28.361Z,15.70
2022-10-14T08:03:56.652Z,15.80
2022-10-14T08:06:24.771Z,15.80
2022-10-14T08:08:52.934Z,15.80
2022-10-14T08:11:23.479Z,15.80
2022-10-14T08:13:52.564Z,15.80
2022-10-14T08:16:23.646Z,15.80
2022-10-14T08:18:52.919Z,16.00
2022-10-14T08:21:22.192Z,15.90
2022-10-14T08:23:50.479Z,16.10
2022-10-14T08:26:23.796Z,16.00
2022-10-14T08:28:53.170Z,16.00
2022-10-14T08:31:23.013Z,16.10
2022-10-14T08:33:51.457Z,16.00
2022-10-14T08:36:20.740Z,15.90
2022-10-14T08:38:49.263Z,16.00
2022-10-14T08:41:37.193Z,16.10
2022-10-14T08:44:14.116Z,16.10
2022-10-14T08:46:51.160Z,16.00
2022-10-14T08:49:26.643Z,16.10
2022-10-14T08:51:59.875Z,16.10
2022-10-14T08:54:33.830Z,16.10
2022-10-14T08:57:05.221Z,16.30
2022-10-14T08:59:39.570Z,16.20
2022-10-14T09:02:24.770Z,16.20
2022-10-14T09:04:53.760Z,16.20
2022-10-14T09:07:23.041Z,16.20
2022-10-14T09:09:54.525Z,16.30
2022-10-14T09:12:27.669Z,16.30
2022-10-14T09:15:04.791Z,16.30
2022-10-14T09:17:38.202Z,16.20
2022-10-14T09:20:17.442Z,16.40
2022-10-14T09:22:46.432Z,16.40
2022-10-14T09:25:17.249Z,16.40
2022-10-14T09:30:17.961Z,16.40
2022-10-14T09:32:51.784Z,16.50
2022-10-14T09:35:26.241Z,16.50
2022-10-14T09:37:54.506Z,16.50
2022-10-14T09:40:31.028Z,16.50
2022-10-14T09:43:03.273Z,16.60
2022-10-14T09:45:47.360Z,16.50
2022-10-14T09:48:18.913Z,16.50
2022-10-14T09:50:52.823Z,16.50
2022-10-14T09:53:27.753Z,16.50
2022-10-14T09:55:59.372Z,16.50
2022-10-14T09:58:32.939Z,16.40
2022-10-14T10:01:02.581Z,16.40
2022-10-14T10:03:33.970Z,16.40
2022-10-14T10:06:07.764Z,16.40
2022-10-14T10:08:39.888Z,16.40
2022-10-14T10:11:10.507Z,16.40
2022-10-14T10:13:45.012Z,16.30
2022-10-14T10:16:22.555Z,16.40
2022-10-14T10:18:53.203Z,16.40
2022-10-14T10:21:25.775Z,16.40
2022-10-14T10:23:59.761Z,16.40
2022-10-14T10:26:31.685Z,16.50
2022-10-14T10:29:02.554Z,16.40
2022-10-14T10:31:51.352Z,16.30
2022-10-14T10:34:52.199Z,16.40
2022-10-14T10:37:28.662Z,16.40
2022-10-14T10:40:20.128Z,16.40
2022-10-14T10:43:00.873Z,16.50
2022-10-14T10:45:39.653Z,16.50
2022-10-14T10:48:13.937Z,16.50
2022-10-14T10:50:49.238Z,16.50
2022-10-14T10:53:38.362Z,16.50
2022-10-14T10:56:13.552Z,16.50
2022-10-14T10:58:44.232Z,16.50
2022-10-14T11:01:26.153Z,16.50
2022-10-14T11:04:05.159Z,16.50
2022-10-14T11:06:59.544Z,16.60
2022-10-14T11:09:49.622Z,16.60
2022-10-14T11:12:25.415Z,16.60
2022-10-14T11:15:11.221Z,16.60
2022-10-14T11:17:48.512Z,16.80
2022-10-14T11:20:26.999Z,16.90
2022-10-14T11:23:14.907Z,16.80
2022-10-14T11:25:50.140Z,16.80
2022-10-14T11:28:29.196Z,16.80
2022-10-14T11:31:07.806Z,16.70
2022-10-14T11:33:50.151Z,16.70
2022-10-14T11:36:31.676Z,16.70
2022-10-14T11:39:12.637Z,16.70
2022-10-14T11:41:54.928Z,16.70
2022-10-14T11:44:30.046Z,16.80
2022-10-14T11:47:04.511Z,16.90
2022-10-14T11:49:38.233Z,17.00
2022-10-14T11:52:12.048Z,17.10
2022-10-14T11:54:46.376Z,17.10
2022-10-14T11:57:23.277Z,17.20
2022-10-14T11:59:52.926Z,17.40
2022-10-14T12:02:32.443Z,17.40
2022-10-14T12:05:08.259Z,17.50
2022-10-14T12:07:41.801Z,17.60
2022-10-14T12:10:23.385Z,17.60
2022-10-14T12:12:52.997Z,17.50
2022-10-14T12:15:24.114Z,17.60
2022-10-14T12:17:55.962Z,17.60
2022-10-14T12:20:32.453Z,17.70
2022-10-14T12:23:02.019Z,17.80
2022-10-14T12:25:36.713Z,18.00
2022-10-14T12:28:05.170Z,17.70
2022-10-14T12:30:36.547Z,17.90
2022-10-14T12:33:06.665Z,17.90
2022-10-14T12:35:53.397Z,17.90
2022-10-14T12:38:22.302Z,17.80
2022-10-14T12:40:51.806Z,17.80
2022-10-14T12:43:24.502Z,17.70
2022-10-14T12:46:10.586Z,17.50
2022-10-14T12:48:46.926Z,17.50
2022-10-14T12:51:19.856Z,17.50
2022-10-14T12:54:04.706Z,17.50
2022-10-14T12:56:38.628Z,17.50
2022-10-14T12:59:09.746Z,17.50
2022-10-14T13:01:38.749Z,17.50
2022-10-14T13:04:20.089Z,17.40
2022-10-14T13:07:40.107Z,17.40
2022-10-14T13:10:47.000Z,17.40
2022-10-14T13:13:52.173Z,17.40
2022-10-14T13:17:05.896Z,17.50
2022-10-14T13:19:45.320Z,17.60
2022-10-14T13:22:42.020Z,17.60
2022-10-14T13:25:16.774Z,17.60
2022-10-14T13:27:55.117Z,17.70
2022-10-14T13:30:34.209Z,17.70
2022-10-14T13:33:12.077Z,17.70
2022-10-14T13:35:50.651Z,17.80
2022-10-14T13:38:21.001Z,17.90
2022-10-14T13:40:53.044Z,17.80
2022-10-14T13:43:26.807Z,18.00
2022-10-14T13:46:00.391Z,18.00
2022-10-14T13:48:32.748Z,18.20
2022-10-14T13:54:17.315Z,18.00
2022-10-14T13:56:45.386Z,18.00
2022-10-14T13:59:43.204Z,17.90
2022-10-14T14:02:16.500Z,17.80
2022-10-14T14:04:52.023Z,17.80
2022-10-14T14:08:21.687Z,17.70
2022-10-14T14:10:19.915Z,17.70
2022-10-14T14:12:48.744Z,17.60
2022-10-14T14:15:23.369Z,17.50
2022-10-14T14:17:52.926Z,17.50
2022-10-14T14:20:25.214Z,17.50
2022-10-14T14:22:53.440Z,17.50
2022-10-14T14:26:01.160Z,17.50
2022-10-14T14:28:15.637Z,17.50
2022-10-14T14:30:54.670Z,17.40
2022-10-14T14:33:34.943Z,17.40
2022-10-14T14:36:04.782Z,17.40
2022-10-14T14:38:34.986Z,17.40
2022-10-14T14:41:04.706Z,17.50
2022-10-14T14:43:36.490Z,17.40
2022-10-14T14:46:06.663Z,17.40
2022-10-14T14:48:36.984Z,17.30
2022-10-14T14:51:05.297Z,17.40
2022-10-14T14:53:33.316Z,17.30
2022-10-14T14:56:10.455Z,17.30
2022-10-14T14:58:47.202Z,17.30
2022-10-14T15:01:21.034Z,17.30
2022-10-14T15:04:13.074Z,17.30
2022-10-14T15:06:51.838Z,17.30
2022-10-14T15:09:24.498Z,17.30
2022-10-14T15:11:54.722Z,17.30
2022-10-14T15:14:31.434Z,17.40
2022-10-14T15:17:00.133Z,17.40
2022-10-14T15:19:38.324Z,17.40
2022-10-14T15:22:12.604Z,17.50
2022-10-14T15:25:02.266Z,17.50
2022-10-14T15:27:49.854Z,17.40
2022-10-14T15:30:31.803Z,17.40
2022-10-14T15:33:02.678Z,17.40
2022-10-14T15:35:34.403Z,17.30
2022-10-14T15:38:02.332Z,17.30
2022-10-14T15:40:31.922Z,17.30
2022-10-14T15:43:00.466Z,17.30
2022-10-14T15:45:28.640Z,17.30
2022-10-14T15:47:59.745Z,17.30
2022-10-14T15:50:27.960Z,17.20
2022-10-14T15:52:57.589Z,17.30
2022-10-14T15:55:27.427Z,17.30
2022-10-14T15:57:55.359Z,17.30
2022-10-14T16:00:26.088Z,17.20
2022-10-14T16:02:58.494Z,17.20
2022-10-14T16:05:27.128Z,17.20
2022-10-14T16:07:55.008Z,17.10
2022-10-14T16:10:29.227Z,17.10
2022-10-14T16:13:00.303Z,17.10
2022-10-14T16:15:35.212Z,16.90
2022-10-14T16:18:03.244Z,17.00
2022-10-14T16:20:31.817Z,17.00
2022-10-14T16:23:01.528Z,16.90
2022-10-14T16:25:35.596Z,17.10
2022-10-14T16:28:07.546Z,16.90
2022-10-14T16:30:39.141Z,16.90
2022-10-14T16:33:07.871Z,16.80
2022-10-14T16:35:35.851Z,16.80
2022-10-14T16:38:03.803Z,16.70
2022-10-14T16:40:36.681Z,16.70
2022-10-14T16:43:05.092Z,16.60
2022-10-14T16:45:33.293Z,16.60
2022-10-14T16:48:01.265Z,16.50
2022-10-14T16:50:29.313Z,16.50
2022-10-14T16:53:14.583Z,16.50
2022-10-14T16:55:44.527Z,16.40
2022-10-14T16:58:12.502Z,16.40
2022-10-14T17:00:40.442Z,16.60
2022-10-14T17:03:08.513Z,16.40
2022-10-14T17:05:36.549Z,16.30
2022-10-14T17:08:04.481Z,16.40
2022-10-14T17:10:32.512Z,16.30
2022-10-14T17:13:02.240Z,16.30
2022-10-14T17:15:30.481Z,16.30
2022-10-14T17:18:01.015Z,16.30
2022-10-14T17:20:28.968Z,16.30
2022-10-14T17:22:58.394Z,16.20
2022-10-14T17:25:26.458Z,16.20
2022-10-14T17:27:54.614Z,16.30
2022-10-14T17:30:24.694Z,16.40
2022-10-14T17:32:52.784Z,16.20
2022-10-14T17:35:23.155Z,16.20
2022-10-14T17:37:51.114Z,16.30
2022-10-14T17:40:19.331Z,16.10
2022-10-14T17:42:47.275Z,16.20
2022-10-14T17:45:15.299Z,16.30
2022-10-14T17:47:44.655Z,16.30
2022-10-14T17:50:13.103Z,16.20
2022-10-14T17:52:41.086Z,16.30
2022-10-14T17:55:09.988Z,16.10
2022-10-14T17:57:38.117Z,16.10
2022-10-14T18:00:06.892Z,16.10
2022-10-14T18:02:34.839Z,16.10
2022-10-14T18:05:04.310Z,16.10
2022-10-14T18:07:32.298Z,16.20
2022-10-14T18:10:00.322Z,16.10
2022-10-14T18:12:28.366Z,16.10
2022-10-14T18:14:58.302Z,16.10
2022-10-14T18:17:26.298Z,16.10
2022-10-14T18:19:54.330Z,16.10
2022-10-14T18:22:23.767Z,16.10
2022-10-14T18:24:51.717Z,15.90
2022-10-14T18:27:19.878Z,16.00
2022-10-14T18:29:47.959Z,15.90
2022-10-14T18:32:16.001Z,15.90
2022-10-14T18:34:44.011Z,15.90
2022-10-14T18:37:12.178Z,15.90
2022-10-14T18:39:41.678Z,16.10
2022-10-14T18:42:09.566Z,15.90
2022-10-14T18:44:37.532Z,15.80
2022-10-14T18:47:05.734Z,15.90
2022-10-14T18:49:38.247Z,15.90
2022-10-14T18:52:08.639Z,15.90
2022-10-14T18:54:38.030Z,15.90
2022-10-14T18:57:07.515Z,15.90
2022-10-14T18:59:35.785Z,15.90
2022-10-14T19:02:03.758Z,15.90
2022-10-14T19:04:31.704Z,15.90
2022-10-14T19:07:02.416Z,15.70
2022-10-14T19:09:33.110Z,15.80
2022-10-14T19:12:21.200Z,15.80
2022-10-14T19:14:50.708Z,15.80
2022-10-14T19:17:18.584Z,15.70
2022-10-14T19:19:46.495Z,15.70
2022-10-14T19:22:14.666Z,15.70
2022-10-14T19:24:42.565Z,15.70
2022-10-14T19:27:10.743Z,15.60
2022-10-14T19:29:38.764Z,15.60
2022-10-14T19:32:08.383Z,15.60
2022-10-14T19:34:36.250Z,15.70
2022-10-14T19:37:04.270Z,15.50
2022-10-14T19:39:32.166Z,15.60
2022-10-14T19:42:00.291Z,15.50
2022-10-14T19:44:28.240Z,15.50
2022-10-14T19:47:03.460Z,15.50
2022-10-14T19:49:32.956Z,15.40
2022-10-14T19:52:00.926Z,15.40
2022-10-14T19:54:29.067Z,15.40
2022-10-14T19:56:57.001Z,15.30
2022-10-14T19:59:25.068Z,15.40
2022-10-14T20:01:53.133Z,15.30
2022-10-14T20:04:25.146Z,15.30
2022-10-14T20:06:56.941Z,15.20
2022-10-14T20:09:24.955Z,15.20
2022-10-14T20:11:53.034Z,15.20
2022-10-14T20:14:20.976Z,15.20
2022-10-14T20:16:52.306Z,15.30
2022-10-14T20:19:23.031Z,15.20
2022-10-14T20:21:51.000Z,15.10
2022-10-14T20:24:20.595Z,15.20
2022-10-14T20:26:48.620Z,15.20
2022-10-14T20:29:16.711Z,15.30
2022-10-14T20:31:44.593Z,15.20
2022-10-14T20:34:12.599Z,15.20
2022-10-14T20:36:40.638Z,15.20
2022-10-14T20:39:08.557Z,15.20
2022-10-14T20:41:38.050Z,15.10
2022-10-14T20:44:06.142Z,15.20
2022-10-14T20:46:34.093Z,15.20
2022-10-14T20:49:02.310Z,15.20
2022-10-14T20:51:30.330Z,15.20
2022-10-14T20:54:02.834Z,15.20
2022-10-14T20:56:33.416Z,15.20
2022-10-14T20:59:04.260Z,15.20
2022-10-14T21:01:33.505Z,15.20
2022-10-14T21:04:02.873Z,15.20
2022-10-14T21:06:31.563Z,15.30
2022-10-14T21:08:59.799Z,15.10
2022-10-14T21:11:28.332Z,15.10
2022-10-14T21:13:58.533Z,15.30
2022-10-14T21:16:29.595Z,15.10
2022-10-14T21:18:59.357Z,15.20
2022-10-14T21:21:29.244Z,15.10
2022-10-14T21:23:58.081Z,15.10
2022-10-14T21:26:28.122Z,15.20
2022-10-14T21:28:56.216Z,15.20
2022-10-14T21:31:24.267Z,15.20
2022-10-14T21:34:01.314Z,15.10
2022-10-14T21:36:34.830Z,15.10
2022-10-14T21:39:06.353Z,15.30
2022-10-14T21:41:34.683Z,15.20
2022-10-14T21:44:03.087Z,15.20
2022-10-14T21:46:30.988Z,15.20
2022-10-14T21:49:00.675Z,15.30
2022-10-14T21:51:30.680Z,15.20
2022-10-14T21:53:59.484Z,15.20
2022-10-14T21:56:27.955Z,15.20
2022-10-14T21:58:56.300Z,15.10
2022-10-14T22:01:26.144Z,15.20
2022-10-14T22:03:55.351Z,15.20
2022-10-14T22:06:25.151Z,15.20
2022-10-14T22:08:55.500Z,15.20
2022-10-14T22:11:26.711Z,15.20
2022-10-14T22:13:56.705Z,15.30
2022-10-14T22:16:25.242Z,15.30
2022-10-14T22:18:53.960Z,15.30
2022-10-14T22:21:25.789Z,15.30
2022-10-14T22:23:54.240Z,15.30
2022-10-14T22:26:24.346Z,15.30
2022-10-14T22:28:58.943Z,15.30
2022-10-14T22:31:27.531Z,15.30
2022-10-14T22:33:56.101Z,15.30
2022-10-14T22:36:28.234Z,15.40
2022-10-14T22:38:57.928Z,15.20
2022-10-14T22:41:30.945Z,15.20
2022-10-14T22:44:02.049Z,15.20
2022-10-14T22:46:32.886Z,15.10
2022-10-14T22:49:02.099Z,15.20
2022-10-14T22:51:33.841Z,15.10
2022-10-14T22:54:02.276Z,15.20
2022-10-14T22:56:31.992Z,15.10
2022-10-14T22:59:02.114Z,15.10
2022-10-14T23:01:30.505Z,15.10
2022-10-14T23:03:59.751Z,15.10
2022-10-14T23:06:30.595Z,15.10
2022-10-14T23:09:01.343Z,15.10
2022-10-14T23:11:31.026Z,15.10
2022-10-14T23:14:02.831Z,15.10
2022-10-14T23:16:34.096Z,15.20
2022-10-14T23:19:02.163Z,15.20
2022-10-14T23:21:31.416Z,15.10
2022-10-14T23:24:02.129Z,15.10
2022-10-14T23:26:33.238Z,15.10
2022-10-14T23:29:02.435Z,15.20
2022-10-14T23:31:32.121Z,15.20
2022-10-14T23:34:05.732Z,15.20
2022-10-14T23:36:34.020Z,15.20
2022-10-14T23:39:03.795Z,15.20
2022-10-14T23:41:31.829Z,15.10
2022-10-14T23:43:59.965Z,15.10
2022-10-14T23:46:27.939Z,15.10
2022-10-14T23:49:07.296Z,15.10
2022-10-14T23:51:42.557Z,15.10
2022-10-14T23:54:11.845Z,15.10
2022-10-14T23:56:39.842Z,15.10
2022-10-14T23:59:07.787Z,15.00
